Aeroporto :
LOGIN :

Iscrizione | Disclaimer

   EN    FR    IT 

 










Sommario :    VFR   VFR Marginale   IFR   IFR Intensivo   IFR Molto Intensivo
Visibilità : 
Base nubi : 
>= 8 km
>= 3000ft
5 / 8 km
1000 / 3000 ft
1500m / 5 km
500 / 1000 ft
800 / 1500m
200 / 500 ft
< 800m
< 200 ft
Simboli :   Temporali  Nebbia  Neve Forte  Precipitazioni Forti  Vento > 20 kt
SIGMETs :   Varie  Temporali  Ghiacco  Turbolenza  Onda orograficha  Ceneri Vulcaniche






- Altitudine del aeroporto : 158 ft
- Codice IATA : QAR


EHDL - Deelen Airbase

ULTIMO METAR :
  • 151625Z AUTO 30005KT 220V010 9999 BKN074 OVC280 20/10 Q1014 BLU

METARs OBSOLETI :
  • 151555Z AUTO VRB08KT 9999 BKN043 BKN056 BKN078 20/09 Q1014 BLU
  • 151525Z AUTO VRB05KT 9999 SCT042 BKN080 BKN230 21/10 Q1014 BLU
  • 151455Z AUTO 29007KT 240V340 9999 SCT067 OVC075 20/10 Q1014 BLU
  • 151425Z AUTO VRB07KT 9999 FEW041 SCT049 BKN076 20/09 Q1014 BLU
  • 151355Z AUTO 30007KT 230V350 9999 FEW050 BKN055 BKN061 20/09 Q1014 BLU

TAF TAF EHDL
Valido dal 15 a 09 ore il 15 a 21 ore UTC


150805Z 1509/1521 31007KT 9999 SCT023



MetMap, La meteo Aeronautica in un colpo d'occhio ! - Copyright ORBIFLY Dicembre 2007 - Disclaimer

ORBIFLY MET'MAP TEAM :

Programmazione e sviluppo : Alexandra Zaïnal
Concezione : Baudouin d'Aumeries
Aiuto per la programmazione : Marc-Olivier Méhu
Supporto tecnico e logistico : Manuel Goepfert
Aiuto per la traduzione : Arnaldo La Scala

Contatto : metmap@orbifly.com




FONTI E CREDITI :

   NOAA